createdAt,value
2017-12-02T00:02:03.779Z,-0.20
2017-12-02T00:04:32.220Z,-0.40
2017-12-02T00:06:59.930Z,-0.30
2017-12-02T00:09:27.710Z,-0.30
2017-12-02T00:11:55.340Z,-0.30
2017-12-02T00:14:23.043Z,-0.30
2017-12-02T00:16:50.704Z,-0.30
2017-12-02T00:19:18.392Z,-0.30
2017-12-02T00:21:46.910Z,-0.20
2017-12-02T00:24:14.582Z,-0.20
2017-12-02T00:26:42.235Z,-0.20
2017-12-02T00:29:09.936Z,-0.30
2017-12-02T00:31:37.627Z,-0.20
2017-12-02T00:34:06.082Z,-0.30
2017-12-02T00:36:33.969Z,-0.30
2017-12-02T00:39:02.595Z,-0.30
2017-12-02T00:41:30.323Z,-0.30
2017-12-02T00:43:58.812Z,-0.40
2017-12-02T00:46:27.018Z,-0.40
2017-12-02T00:48:54.771Z,-0.50
2017-12-02T00:51:22.470Z,-0.50
2017-12-02T00:53:50.111Z,-0.60
2017-12-02T00:56:17.825Z,-0.60
2017-12-02T00:58:45.539Z,-0.70
2017-12-02T01:01:13.198Z,-0.80
2017-12-02T01:03:40.992Z,-0.80
2017-12-02T01:06:09.464Z,-0.90
2017-12-02T01:08:37.144Z,-0.90
2017-12-02T01:11:05.668Z,-0.90
2017-12-02T01:13:33.332Z,-0.80
2017-12-02T01:16:01.044Z,-0.80
2017-12-02T01:18:29.475Z,-0.80
2017-12-02T01:20:57.202Z,-0.70
2017-12-02T01:23:24.847Z,-0.70
2017-12-02T01:25:53.283Z,-0.70
2017-12-02T01:28:20.988Z,-0.70
2017-12-02T01:30:49.584Z,-0.70
2017-12-02T01:33:17.259Z,-0.70
2017-12-02T01:35:44.947Z,-0.60
2017-12-02T01:38:12.593Z,-0.60
2017-12-02T01:40:40.241Z,-0.60
2017-12-02T01:43:08.077Z,-0.60
2017-12-02T01:45:36.494Z,-0.60
2017-12-02T01:48:04.233Z,-0.60
2017-12-02T01:50:31.903Z,-0.60
2017-12-02T01:52:59.610Z,-0.60
2017-12-02T01:55:27.332Z,-0.70
2017-12-02T01:57:55.132Z,-0.60
2017-12-02T02:00:22.871Z,-0.70
2017-12-02T02:02:50.583Z,-0.60
2017-12-02T02:05:19.056Z,-0.60
2017-12-02T02:07:47.521Z,-0.70
2017-12-02T02:10:15.201Z,-0.70
2017-12-02T02:12:43.638Z,-0.70
2017-12-02T02:15:11.356Z,-0.70
2017-12-02T02:17:39.039Z,-0.80
2017-12-02T02:20:06.747Z,-0.80
2017-12-02T02:22:35.327Z,-0.80
2017-12-02T02:25:03.859Z,-0.80
2017-12-02T02:27:31.549Z,-0.80
2017-12-02T02:29:59.218Z,-0.80
2017-12-02T02:32:27.680Z,-0.70
2017-12-02T02:34:55.379Z,-0.70
2017-12-02T02:37:23.794Z,-0.70
2017-12-02T02:39:51.440Z,-0.80
2017-12-02T02:42:19.208Z,-0.80
2017-12-02T02:44:46.842Z,-0.80
2017-12-02T02:47:15.320Z,-0.80
2017-12-02T02:49:43.756Z,-0.80
2017-12-02T02:52:11.610Z,-0.80
2017-12-02T02:54:39.339Z,-0.80
2017-12-02T02:57:07.785Z,-0.80
2017-12-02T02:59:36.344Z,-0.80
2017-12-02T03:02:03.973Z,-0.80
2017-12-02T03:04:31.620Z,-0.90
2017-12-02T03:06:59.328Z,-0.90
2017-12-02T03:09:27.028Z,-0.90
2017-12-02T03:11:55.542Z,-0.90
2017-12-02T03:14:23.223Z,-0.90
2017-12-02T03:16:50.993Z,-0.90
2017-12-02T03:19:18.761Z,-1.00
2017-12-02T03:21:46.448Z,-1.00
2017-12-02T03:24:14.967Z,-0.90
2017-12-02T03:26:42.733Z,-0.90
2017-12-02T03:29:11.190Z,-0.90
2017-12-02T03:31:38.903Z,-0.90
2017-12-02T03:34:07.445Z,-0.90
2017-12-02T03:36:35.158Z,-0.90
2017-12-02T03:39:02.962Z,-1.00
2017-12-02T03:41:30.690Z,-1.00
2017-12-02T03:43:58.465Z,-0.90
2017-12-02T03:46:26.899Z,-0.90
2017-12-02T03:48:54.629Z,-1.00
2017-12-02T03:51:22.355Z,-0.90
2017-12-02T03:53:50.092Z,-0.90
2017-12-02T03:56:17.821Z,-0.90
2017-12-02T03:58:45.552Z,-0.90
2017-12-02T04:01:13.266Z,-0.90
2017-12-02T04:03:40.998Z,-1.00
2017-12-02T04:06:08.767Z,-1.10
2017-12-02T04:08:36.519Z,-1.10
2017-12-02T04:11:04.270Z,-1.10
2017-12-02T04:13:32.817Z,-1.10
2017-12-02T04:16:00.550Z,-1.20
2017-12-02T04:18:28.367Z,-1.20
2017-12-02T04:20:56.838Z,-1.30
2017-12-02T04:23:24.530Z,-1.30
2017-12-02T04:25:52.268Z,-1.40
2017-12-02T04:28:20.759Z,-1.40
2017-12-02T04:30:49.324Z,-1.40
2017-12-02T04:33:17.029Z,-1.40
2017-12-02T04:35:44.740Z,-1.40
2017-12-02T04:38:12.484Z,-1.40
2017-12-02T04:40:41.568Z,-1.30
2017-12-02T04:43:09.392Z,-1.50
2017-12-02T04:45:37.184Z,-1.40
2017-12-02T04:48:04.960Z,-1.50
2017-12-02T04:50:32.698Z,-1.50
2017-12-02T04:53:00.430Z,-1.60
2017-12-02T04:55:28.978Z,-1.60
2017-12-02T04:57:56.712Z,-1.70
2017-12-02T05:00:24.423Z,-1.60
2017-12-02T05:02:52.175Z,-1.70
2017-12-02T05:05:19.923Z,-1.70
2017-12-02T05:07:47.747Z,-1.70
2017-12-02T05:10:15.459Z,-1.70
2017-12-02T05:12:43.240Z,-1.70
2017-12-02T05:15:11.768Z,-1.70
2017-12-02T05:17:39.522Z,-1.70
2017-12-02T05:20:07.287Z,-1.70
2017-12-02T05:22:35.001Z,-1.70
2017-12-02T05:25:03.594Z,-1.70
2017-12-02T05:27:32.084Z,-1.70
2017-12-02T05:30:00.618Z,-1.70
2017-12-02T05:32:28.331Z,-1.70
2017-12-02T05:34:56.202Z,-1.60
2017-12-02T05:37:23.956Z,-1.60
2017-12-02T05:39:51.728Z,-1.60
2017-12-02T05:42:19.423Z,-1.60
2017-12-02T05:44:47.216Z,-1.60
2017-12-02T05:47:15.067Z,-1.60
2017-12-02T05:49:42.798Z,-1.60
2017-12-02T05:52:10.633Z,-1.70
2017-12-02T05:54:38.329Z,-1.80
2017-12-02T05:57:06.059Z,-1.80
2017-12-02T05:59:33.775Z,-1.80
2017-12-02T06:02:02.803Z,-1.90
2017-12-02T06:04:30.599Z,-1.90
2017-12-02T06:06:58.360Z,-1.90
2017-12-02T06:09:26.065Z,-2.00
2017-12-02T06:11:53.803Z,-2.00
2017-12-02T06:14:21.540Z,-2.00
2017-12-02T06:16:49.255Z,-2.00
2017-12-02T06:19:16.996Z,-2.00
2017-12-02T06:21:44.732Z,-1.90
2017-12-02T06:24:12.581Z,-2.00
2017-12-02T06:26:40.413Z,-1.80
2017-12-02T06:29:08.180Z,-1.80
2017-12-02T06:31:35.918Z,-1.80
2017-12-02T06:34:03.608Z,-1.70
2017-12-02T06:36:32.107Z,-1.70
2017-12-02T06:39:01.146Z,-1.70
2017-12-02T06:41:29.039Z,-1.70
2017-12-02T06:43:56.805Z,-1.80
2017-12-02T06:46:25.307Z,-1.90
2017-12-02T06:48:53.063Z,-1.90
2017-12-02T06:51:21.566Z,-2.00
2017-12-02T06:53:49.295Z,-2.00
2017-12-02T06:56:17.759Z,-2.10
2017-12-02T06:58:45.490Z,-2.10
2017-12-02T07:01:13.215Z,-2.10
2017-12-02T07:03:41.022Z,-2.10
2017-12-02T07:06:08.774Z,-2.10
2017-12-02T07:08:36.511Z,-2.20
2017-12-02T07:11:04.295Z,-2.10
2017-12-02T07:13:32.072Z,-2.10
2017-12-02T07:15:59.851Z,-2.10
2017-12-02T07:18:27.612Z,-2.10
2017-12-02T07:20:55.367Z,-2.10
2017-12-02T07:23:23.143Z,-2.10
2017-12-02T07:25:51.678Z,-2.10
2017-12-02T07:28:19.439Z,-2.10
2017-12-02T07:30:47.168Z,-2.10
2017-12-02T07:33:15.633Z,-2.20
2017-12-02T07:35:44.134Z,-2.10
2017-12-02T07:38:12.582Z,-2.10
2017-12-02T07:40:40.321Z,-2.10
2017-12-02T07:43:08.050Z,-2.20
2017-12-02T07:45:35.759Z,-2.10
2017-12-02T07:48:03.447Z,-2.10
2017-12-02T07:50:31.960Z,-2.00
2017-12-02T07:52:59.672Z,-2.00
2017-12-02T07:55:27.395Z,-2.00
2017-12-02T07:57:55.172Z,-1.90
2017-12-02T08:00:22.907Z,-1.90
2017-12-02T08:02:50.605Z,-1.80
2017-12-02T08:05:18.386Z,-1.70
2017-12-02T08:07:46.133Z,-1.60
2017-12-02T08:10:13.811Z,-1.50
2017-12-02T08:12:41.519Z,-1.40
2017-12-02T08:15:09.240Z,-1.20
2017-12-02T08:17:37.011Z,-1.10
2017-12-02T08:20:04.716Z,-1.10
2017-12-02T08:22:32.410Z,-1.00
2017-12-02T08:25:01.053Z,-0.90
2017-12-02T08:27:28.763Z,-0.80
2017-12-02T08:29:56.527Z,-0.80
2017-12-02T08:32:24.201Z,-0.90
2017-12-02T08:34:52.643Z,-0.80
2017-12-02T08:37:21.263Z,-0.80
2017-12-02T08:39:48.946Z,-0.80
2017-12-02T08:42:16.688Z,-0.70
2017-12-02T08:44:45.136Z,-0.60
2017-12-02T08:47:12.899Z,-0.60
2017-12-02T08:49:41.198Z,-0.70
2017-12-02T08:52:08.955Z,-0.60
2017-12-02T08:54:38.058Z,-0.60
2017-12-02T08:57:07.315Z,-0.60
2017-12-02T08:59:35.051Z,-0.60
2017-12-02T09:02:02.752Z,-0.80
2017-12-02T09:04:30.551Z,-0.80
2017-12-02T09:06:59.088Z,-0.90
2017-12-02T09:09:26.835Z,-0.90
2017-12-02T09:11:55.335Z,-1.00
2017-12-02T09:14:23.120Z,-0.80
2017-12-02T09:16:51.591Z,-0.70
2017-12-02T09:19:19.348Z,-0.70
2017-12-02T09:21:47.077Z,-0.60
2017-12-02T09:24:14.855Z,-0.60
2017-12-02T09:26:42.691Z,-0.60
2017-12-02T09:29:10.400Z,-0.60
2017-12-02T09:31:38.922Z,-0.70
2017-12-02T09:34:06.670Z,-0.70
2017-12-02T09:36:35.215Z,-0.50
2017-12-02T09:39:03.041Z,-0.50
2017-12-02T09:41:30.876Z,-0.60
2017-12-02T09:43:58.599Z,-0.50
2017-12-02T09:46:26.392Z,-0.50
2017-12-02T09:48:54.945Z,-0.30
2017-12-02T09:51:22.668Z,-0.30
2017-12-02T09:53:51.199Z,-0.20
2017-12-02T09:56:18.944Z,-0.30
2017-12-02T09:58:46.910Z,-0.20
2017-12-02T10:01:14.701Z,-0.10
2017-12-02T10:03:43.199Z,0.10
2017-12-02T10:06:11.700Z,0.10
2017-12-02T10:08:39.410Z,0.10
2017-12-02T10:11:07.114Z,0.10
2017-12-02T10:13:34.867Z,0.30
2017-12-02T10:16:03.302Z,0.50
2017-12-02T10:18:31.031Z,0.40
2017-12-02T10:20:58.748Z,0.40
2017-12-02T10:23:26.479Z,0.10
2017-12-02T10:25:54.244Z,0.10
2017-12-02T10:28:21.978Z,0.10
2017-12-02T10:30:49.706Z,0.00
2017-12-02T10:33:18.342Z,-0.10
2017-12-02T10:35:46.021Z,-0.10
2017-12-02T10:38:13.773Z,-0.10
2017-12-02T10:40:41.462Z,-0.20
2017-12-02T10:43:09.152Z,-0.30
2017-12-02T10:45:36.852Z,-0.20
2017-12-02T10:48:04.767Z,-0.20
2017-12-02T10:50:33.290Z,-0.30
2017-12-02T10:53:00.973Z,-0.30
2017-12-02T10:55:28.776Z,-0.30
2017-12-02T10:57:57.807Z,-0.40
2017-12-02T11:00:25.583Z,-0.40
2017-12-02T11:02:53.359Z,-0.50
2017-12-02T11:05:21.063Z,-0.40
2017-12-02T11:07:48.759Z,-0.40
2017-12-02T11:10:16.412Z,-0.40
2017-12-02T11:12:44.872Z,-0.20
2017-12-02T11:15:12.561Z,-0.20
2017-12-02T11:17:40.195Z,-0.20
2017-12-02T11:20:07.896Z,-0.10
2017-12-02T11:22:35.560Z,-0.10
2017-12-02T11:25:03.282Z,-0.10
2017-12-02T11:27:30.950Z,-0.10
2017-12-02T11:29:58.611Z,-0.10
2017-12-02T11:32:26.290Z,-0.20
2017-12-02T11:34:53.928Z,-0.20
2017-12-02T11:37:21.634Z,-0.20
2017-12-02T11:39:49.316Z,-0.10
2017-12-02T11:42:17.720Z,0.00
2017-12-02T11:44:45.429Z,0.00
2017-12-02T11:47:13.095Z,0.20
2017-12-02T11:49:40.829Z,0.20
2017-12-02T11:52:08.487Z,0.30
2017-12-02T11:54:36.104Z,0.30
2017-12-02T11:57:04.522Z,0.30
2017-12-02T11:59:32.140Z,0.30
2017-12-02T12:02:00.572Z,0.30
2017-12-02T12:04:28.253Z,0.30
2017-12-02T12:06:56.679Z,0.10
2017-12-02T12:09:24.341Z,0.10
2017-12-02T12:11:51.994Z,0.10
2017-12-02T12:14:19.680Z,0.00
2017-12-02T12:16:47.340Z,0.00
2017-12-02T12:19:15.088Z,0.10
2017-12-02T12:21:42.740Z,0.10
2017-12-02T12:24:10.353Z,0.10
2017-12-02T12:26:38.819Z,0.00
2017-12-02T12:29:06.439Z,0.00
2017-12-02T12:31:34.120Z,0.00
2017-12-02T12:34:01.810Z,0.00
2017-12-02T12:36:29.436Z,-0.10
2017-12-02T12:38:57.120Z,-0.20
2017-12-02T12:41:24.814Z,-0.20
2017-12-02T12:43:53.267Z,-0.10
2017-12-02T12:46:21.074Z,-0.10
2017-12-02T12:48:48.980Z,-0.10
2017-12-02T12:51:16.700Z,-0.10
2017-12-02T12:53:44.329Z,0.00
2017-12-02T12:56:12.031Z,-0.10
2017-12-02T12:58:39.680Z,-0.10
2017-12-02T13:01:07.319Z,-0.10
2017-12-02T13:03:35.778Z,-0.20
2017-12-02T13:06:03.415Z,-0.20
2017-12-02T13:08:31.988Z,-0.10
2017-12-02T13:10:59.627Z,-0.10
2017-12-02T13:13:27.273Z,0.00
2017-12-02T13:15:54.926Z,0.00
2017-12-02T13:18:23.624Z,0.00
2017-12-02T13:20:51.295Z,-0.10
2017-12-02T13:23:20.889Z,-0.10
2017-12-02T13:25:48.568Z,0.00
2017-12-02T13:28:16.243Z,0.00
2017-12-02T13:30:43.872Z,0.10
2017-12-02T13:33:11.526Z,0.10
2017-12-02T13:35:39.166Z,0.00
2017-12-02T13:38:06.858Z,0.00
2017-12-02T13:40:34.534Z,0.00
2017-12-02T13:43:02.228Z,-0.10
2017-12-02T13:45:29.977Z,0.00
2017-12-02T13:47:57.656Z,-0.30
2017-12-02T13:50:25.407Z,-0.20
2017-12-02T13:52:53.092Z,-0.20
2017-12-02T13:55:20.778Z,-0.20
2017-12-02T13:57:48.476Z,-0.30
2017-12-02T14:00:16.187Z,-0.30
2017-12-02T14:02:45.084Z,-0.10
2017-12-02T14:05:12.823Z,-0.10
2017-12-02T14:07:40.514Z,-0.10
2017-12-02T14:10:12.478Z,-0.10
2017-12-02T14:12:40.287Z,-0.10
2017-12-02T14:15:07.934Z,-0.10
2017-12-02T14:17:35.547Z,-0.10
2017-12-02T14:20:03.988Z,-0.20
2017-12-02T14:22:31.639Z,-0.20
2017-12-02T14:24:59.300Z,-0.30
2017-12-02T14:27:27.726Z,-0.30
2017-12-02T14:29:56.096Z,-0.30
2017-12-02T14:32:24.530Z,-0.30
2017-12-02T14:34:52.162Z,-0.40
2017-12-02T14:37:19.925Z,-0.40
2017-12-02T14:39:47.600Z,-0.40
2017-12-02T14:42:15.254Z,-0.30
2017-12-02T14:44:42.993Z,-0.30
2017-12-02T14:47:10.611Z,-0.30
2017-12-02T14:49:38.231Z,-0.30
2017-12-02T14:52:05.889Z,-0.40
2017-12-02T14:54:34.128Z,-0.30
2017-12-02T14:57:02.564Z,-0.40
2017-12-02T14:59:30.212Z,-0.40
2017-12-02T15:01:58.036Z,-0.30
2017-12-02T15:04:26.000Z,-0.30
2017-12-02T15:06:54.379Z,-0.40
2017-12-02T15:09:22.852Z,-0.40
2017-12-02T15:11:51.312Z,-0.40
2017-12-02T15:14:18.998Z,-0.40
2017-12-02T15:16:47.399Z,-0.40
2017-12-02T15:19:15.151Z,-0.40
2017-12-02T15:21:42.895Z,-0.40
2017-12-02T15:24:11.418Z,-0.40
2017-12-02T15:26:39.144Z,-0.40
2017-12-02T15:29:07.555Z,-0.50
2017-12-02T15:31:35.232Z,-0.50
2017-12-02T15:34:02.883Z,-0.50
2017-12-02T15:36:30.581Z,-0.40
2017-12-02T15:38:58.297Z,-0.40
2017-12-02T15:41:26.753Z,-0.40
2017-12-02T15:43:54.433Z,-0.40
2017-12-02T15:46:22.103Z,-0.40
2017-12-02T15:48:49.860Z,-0.40
2017-12-02T15:51:17.703Z,-0.40
2017-12-02T15:53:45.462Z,-0.50
2017-12-02T15:56:13.169Z,-0.50
2017-12-02T15:58:41.056Z,-0.50
2017-12-02T16:01:08.811Z,-0.40
2017-12-02T16:03:40.006Z,-0.50
2017-12-02T16:06:08.100Z,-0.50
2017-12-02T16:08:35.885Z,-0.50
2017-12-02T16:11:03.575Z,-0.40
2017-12-02T16:13:31.387Z,-0.40
2017-12-02T16:15:59.150Z,-0.40
2017-12-02T16:18:26.931Z,-0.40
2017-12-02T16:20:54.812Z,-0.30
2017-12-02T16:23:22.610Z,-0.40
2017-12-02T16:25:58.094Z,-0.40
2017-12-02T16:28:26.259Z,-0.30
2017-12-02T16:31:11.479Z,-0.40
2017-12-02T16:33:46.890Z,-0.40
2017-12-02T16:36:21.370Z,-0.40
2017-12-02T16:38:50.601Z,-0.50
2017-12-02T16:41:18.343Z,-0.60
2017-12-02T16:43:46.037Z,-0.50
2017-12-02T16:46:13.809Z,-0.60
2017-12-02T16:48:41.434Z,-0.60
2017-12-02T16:51:09.122Z,-0.60
2017-12-02T16:53:36.833Z,-0.60
2017-12-02T16:56:04.516Z,-0.60
2017-12-02T16:58:32.194Z,-0.60
2017-12-02T17:00:59.878Z,-0.60
2017-12-02T17:03:28.431Z,-0.60
2017-12-02T17:05:56.126Z,-0.60
2017-12-02T17:08:24.576Z,-0.70
2017-12-02T17:10:52.249Z,-0.70
2017-12-02T17:13:20.683Z,-0.70
2017-12-02T17:15:48.428Z,-0.70
2017-12-02T17:18:16.079Z,-0.70
2017-12-02T17:20:44.510Z,-0.70
2017-12-02T17:23:12.172Z,-0.70
2017-12-02T17:25:39.862Z,-0.60
2017-12-02T17:28:07.543Z,-0.60
2017-12-02T17:30:35.215Z,-0.70
2017-12-02T17:33:02.902Z,-0.70
2017-12-02T17:35:30.599Z,-0.60
2017-12-02T17:37:58.262Z,-0.70
2017-12-02T17:40:26.012Z,-0.70
2017-12-02T17:42:53.691Z,-0.70
2017-12-02T17:45:22.206Z,-0.70
2017-12-02T17:47:49.835Z,-0.70
2017-12-02T17:50:18.252Z,-0.80
2017-12-02T17:52:45.971Z,-0.80
2017-12-02T17:55:14.399Z,-0.70
2017-12-02T17:57:42.044Z,-0.80
2017-12-02T18:00:09.771Z,-0.80
2017-12-02T18:02:38.175Z,-0.70
2017-12-02T18:05:05.875Z,-0.70
2017-12-02T18:07:33.557Z,-0.70
2017-12-02T18:10:01.204Z,-0.70
2017-12-02T18:12:28.829Z,-0.70
2017-12-02T18:14:56.615Z,-0.70
2017-12-02T18:17:24.285Z,-0.70
2017-12-02T18:19:51.911Z,-0.70
2017-12-02T18:22:19.607Z,-0.70
2017-12-02T18:24:47.240Z,-0.70
2017-12-02T18:27:14.945Z,-0.80
2017-12-02T18:29:42.615Z,-0.80
2017-12-02T18:32:11.019Z,-0.70
2017-12-02T18:34:38.726Z,-0.70
2017-12-02T18:37:07.272Z,-0.80
2017-12-02T18:39:35.017Z,-0.70
2017-12-02T18:42:02.645Z,-0.70
2017-12-02T18:44:30.334Z,-0.70
2017-12-02T18:46:57.970Z,-0.70
2017-12-02T18:49:25.595Z,-0.70
2017-12-02T18:51:53.269Z,-0.70
2017-12-02T18:54:21.104Z,-0.70
2017-12-02T18:56:49.003Z,-0.80
2017-12-02T18:59:17.172Z,-0.80
2017-12-02T19:01:45.057Z,-0.80
2017-12-02T19:04:13.751Z,-0.90
2017-12-02T19:06:42.310Z,-0.80
2017-12-02T19:09:10.135Z,-0.80
2017-12-02T19:11:37.809Z,-0.80
2017-12-02T19:14:05.723Z,-0.70
2017-12-02T19:16:34.340Z,-0.80
2017-12-02T19:19:02.155Z,-0.80
2017-12-02T19:21:30.202Z,-0.80
2017-12-02T19:23:57.991Z,-0.90
2017-12-02T19:26:25.775Z,-0.90
2017-12-02T19:28:53.492Z,-0.90
2017-12-02T19:31:21.337Z,-0.90
2017-12-02T19:33:49.091Z,-0.90
2017-12-02T19:36:16.743Z,-0.90
2017-12-02T19:38:44.391Z,-0.90
2017-12-02T19:41:12.082Z,-0.90
2017-12-02T19:43:39.878Z,-0.80
2017-12-02T19:46:07.948Z,-0.80
2017-12-02T19:48:35.655Z,-0.80
2017-12-02T19:51:03.492Z,-0.80
2017-12-02T19:53:31.988Z,-0.90
2017-12-02T19:55:59.678Z,-0.90
2017-12-02T19:58:27.611Z,-0.90
2017-12-02T20:00:55.504Z,-1.00
2017-12-02T20:03:23.431Z,-1.00
2017-12-02T20:05:51.941Z,-1.00
2017-12-02T20:08:19.707Z,-1.00
2017-12-02T20:10:47.611Z,-1.00
2017-12-02T20:13:15.472Z,-1.10
2017-12-02T20:15:43.431Z,-1.10
2017-12-02T20:18:11.340Z,-1.10
2017-12-02T20:20:39.899Z,-1.00
2017-12-02T20:23:07.775Z,-1.00
2017-12-02T20:25:36.105Z,-1.00
2017-12-02T20:28:03.864Z,-1.00
2017-12-02T20:30:31.714Z,-1.00
2017-12-02T20:32:59.616Z,-1.00
2017-12-02T20:35:27.461Z,-1.00
2017-12-02T20:37:55.412Z,-1.10
2017-12-02T20:40:23.278Z,-1.10
2017-12-02T20:42:51.099Z,-1.10
2017-12-02T20:45:19.724Z,-1.20
2017-12-02T20:47:47.528Z,-1.20
2017-12-02T20:50:15.315Z,-1.20
2017-12-02T20:52:44.155Z,-1.20
2017-12-02T20:55:11.899Z,-1.20
2017-12-02T20:57:39.804Z,-1.20
2017-12-02T21:00:07.657Z,-1.20
2017-12-02T21:02:35.560Z,-1.30
2017-12-02T21:05:04.042Z,-1.30
2017-12-02T21:07:32.509Z,-1.30
2017-12-02T21:10:00.276Z,-1.30
2017-12-02T21:12:28.048Z,-1.30
2017-12-02T21:14:56.670Z,-1.40
2017-12-02T21:17:24.607Z,-1.40
2017-12-02T21:19:53.103Z,-1.30
2017-12-02T21:22:20.803Z,-1.30
2017-12-02T21:24:48.508Z,-1.30
2017-12-02T21:27:16.327Z,-1.30
2017-12-02T21:29:44.150Z,-1.30
2017-12-02T21:32:12.004Z,-1.30
2017-12-02T21:34:39.879Z,-1.30
2017-12-02T21:37:07.538Z,-1.30
2017-12-02T21:39:35.276Z,-1.30
2017-12-02T21:42:02.920Z,-1.30
2017-12-02T21:44:30.627Z,-1.30
2017-12-02T21:46:58.289Z,-1.30
2017-12-02T21:49:25.947Z,-1.30
2017-12-02T21:51:53.599Z,-1.20
2017-12-02T21:54:21.247Z,-1.20
2017-12-02T21:56:49.790Z,-1.20
2017-12-02T21:59:17.409Z,-1.20
2017-12-02T22:01:45.029Z,-1.20
2017-12-02T22:04:13.475Z,-1.20
2017-12-02T22:06:41.312Z,-1.20
2017-12-02T22:09:09.484Z,-1.20
2017-12-02T22:11:38.003Z,-1.30
2017-12-02T22:14:05.795Z,-1.30
2017-12-02T22:16:34.369Z,-1.20
2017-12-02T22:19:03.966Z,-1.20
2017-12-02T22:21:31.887Z,-1.20
2017-12-02T22:23:59.821Z,-1.20
2017-12-02T22:26:27.768Z,-1.10
2017-12-02T22:28:56.529Z,-1.10
2017-12-02T22:31:24.527Z,-1.10
2017-12-02T22:33:53.339Z,-1.00
2017-12-02T22:36:21.084Z,-1.00
2017-12-02T22:38:49.731Z,-1.10
2017-12-02T22:41:17.757Z,-1.10
2017-12-02T22:43:45.555Z,-1.10
2017-12-02T22:46:13.347Z,-1.10
2017-12-02T22:48:41.631Z,-1.10
2017-12-02T22:51:09.566Z,-1.10
2017-12-02T22:53:37.483Z,-1.00
2017-12-02T22:56:05.441Z,-1.00
2017-12-02T22:58:33.432Z,-1.00
2017-12-02T23:01:01.308Z,-0.90
2017-12-02T23:03:29.167Z,-1.00
2017-12-02T23:05:57.158Z,-1.10
2017-12-02T23:08:24.947Z,-1.10
2017-12-02T23:10:52.732Z,-1.00
2017-12-02T23:13:21.159Z,-1.00
2017-12-02T23:15:48.885Z,-1.00
2017-12-02T23:18:16.675Z,-1.00
2017-12-02T23:20:44.774Z,-1.10
2017-12-02T23:23:12.701Z,-1.10
2017-12-02T23:25:40.591Z,-1.10
2017-12-02T23:28:08.473Z,-1.10
2017-12-02T23:30:36.345Z,-1.10
2017-12-02T23:33:04.163Z,-1.10
2017-12-02T23:35:32.182Z,-1.00
2017-12-02T23:38:00.843Z,-1.10
2017-12-02T23:40:28.660Z,-1.10
2017-12-02T23:42:56.496Z,-1.20
2017-12-02T23:45:24.974Z,-1.10
2017-12-02T23:47:52.756Z,-1.10
2017-12-02T23:50:20.613Z,-1.10
2017-12-02T23:52:50.281Z,-1.10
2017-12-02T23:55:17.966Z,-1.10
2017-12-02T23:57:46.620Z,-1.10
